sensor_id;sensor_type;location;lat;lon;timestamp;temperature;humidity
31131;DHT22;20292;50.944;4.034;2022-09-03T00:01:19;22.30;99.90
31131;DHT22;20292;50.944;4.034;2022-09-03T00:03:51;22.40;99.90
31131;DHT22;20292;50.944;4.034;2022-09-03T00:06:25;22.50;99.90
31131;DHT22;20292;50.944;4.034;2022-09-03T00:09:08;22.50;99.90
31131;DHT22;20292;50.944;4.034;2022-09-03T00:11:53;22.60;99.90
31131;DHT22;20292;50.944;4.034;2022-09-03T00:14:27;22.60;99.90
31131;DHT22;20292;50.944;4.034;2022-09-03T00:17:01;22.60;99.90
31131;DHT22;20292;50.944;4.034;2022-09-03T00:19:35;22.60;99.90
31131;DHT22;20292;50.944;4.034;2022-09-03T00:22:08;22.60;99.90
31131;DHT22;20292;50.944;4.034;2022-09-03T00:24:39;22.60;99.90
31131;DHT22;20292;50.944;4.034;2022-09-03T00:27:12;22.50;99.90
31131;DHT22;20292;50.944;4.034;2022-09-03T00:30:00;22.60;99.90
31131;DHT22;20292;50.944;4.034;2022-09-03T00:35:26;22.40;99.90
31131;DHT22;20292;50.944;4.034;2022-09-03T00:37:54;22.10;99.90
31131;DHT22;20292;50.944;4.034;2022-09-03T00:46:57;21.70;99.90
31131;DHT22;20292;50.944;4.034;2022-09-03T01:00:08;22.00;99.90
31131;DHT22;20292;50.944;4.034;2022-09-03T01:02:46;22.00;99.90
31131;DHT22;20292;50.944;4.034;2022-09-03T01:16:25;21.90;99.90
31131;DHT22;20292;50.944;4.034;2022-09-03T01:24:26;22.00;99.90
31131;DHT22;20292;50.944;4.034;2022-09-03T01:30:05;22.10;99.90
31131;DHT22;20292;50.944;4.034;2022-09-03T01:33:05;22.20;99.90
31131;DHT22;20292;50.944;4.034;2022-09-03T01:35:52;22.00;99.90
31131;DHT22;20292;50.944;4.034;2022-09-03T01:50:45;21.70;99.90
31131;DHT22;20292;50.944;4.034;2022-09-03T01:58:43;21.70;99.90
31131;DHT22;20292;50.944;4.034;2022-09-03T02:01:25;21.70;99.90
31131;DHT22;20292;50.944;4.034;2022-09-03T02:03:52;21.70;99.90
31131;DHT22;20292;50.944;4.034;2022-09-03T02:06:25;21.70;99.90
31131;DHT22;20292;50.944;4.034;2022-09-03T02:08:52;21.80;99.90
31131;DHT22;20292;50.944;4.034;2022-09-03T02:11:18;21.80;99.90
31131;DHT22;20292;50.944;4.034;2022-09-03T02:13:47;21.80;99.90
31131;DHT22;20292;50.944;4.034;2022-09-03T02:16:16;21.90;99.90
31131;DHT22;20292;50.944;4.034;2022-09-03T02:18:51;21.90;99.90
31131;DHT22;20292;50.944;4.034;2022-09-03T02:21:21;21.80;99.90
31131;DHT22;20292;50.944;4.034;2022-09-03T02:23:47;21.80;99.90
31131;DHT22;20292;50.944;4.034;2022-09-03T02:26:17;21.80;99.90
31131;DHT22;20292;50.944;4.034;2022-09-03T02:28:44;21.70;99.90
31131;DHT22;20292;50.944;4.034;2022-09-03T02:31:10;21.70;99.90
31131;DHT22;20292;50.944;4.034;2022-09-03T02:33:39;21.60;99.90
31131;DHT22;20292;50.944;4.034;2022-09-03T02:36:08;21.50;99.90
31131;DHT22;20292;50.944;4.034;2022-09-03T02:38:34;21.40;99.90
31131;DHT22;20292;50.944;4.034;2022-09-03T02:40:59;21.40;99.90
31131;DHT22;20292;50.944;4.034;2022-09-03T02:43:26;21.50;99.90
31131;DHT22;20292;50.944;4.034;2022-09-03T02:45:58;21.50;99.90
31131;DHT22;20292;50.944;4.034;2022-09-03T02:48:26;21.60;99.90
31131;DHT22;20292;50.944;4.034;2022-09-03T02:50:52;21.60;99.90
31131;DHT22;20292;50.944;4.034;2022-09-03T02:53:18;21.70;99.90
31131;DHT22;20292;50.944;4.034;2022-09-03T02:55:44;21.70;99.90
31131;DHT22;20292;50.944;4.034;2022-09-03T02:58:09;21.70;99.90
31131;DHT22;20292;50.944;4.034;2022-09-03T03:00:35;21.70;99.90
31131;DHT22;20292;50.944;4.034;2022-09-03T03:03:02;21.70;99.90
31131;DHT22;20292;50.944;4.034;2022-09-03T03:05:52;21.70;99.90
31131;DHT22;20292;50.944;4.034;2022-09-03T03:08:21;21.60;99.90
31131;DHT22;20292;50.944;4.034;2022-09-03T03:10:48;21.70;99.90
31131;DHT22;20292;50.944;4.034;2022-09-03T03:13:15;21.70;99.90
31131;DHT22;20292;50.944;4.034;2022-09-03T03:15:41;21.80;99.90
31131;DHT22;20292;50.944;4.034;2022-09-03T03:18:07;21.80;99.90
31131;DHT22;20292;50.944;4.034;2022-09-03T03:20:39;21.80;99.90
31131;DHT22;20292;50.944;4.034;2022-09-03T03:23:05;21.90;99.90
31131;DHT22;20292;50.944;4.034;2022-09-03T03:25:37;21.80;99.90
31131;DHT22;20292;50.944;4.034;2022-09-03T03:28:03;21.80;99.90
31131;DHT22;20292;50.944;4.034;2022-09-03T03:30:30;21.80;99.90
31131;DHT22;20292;50.944;4.034;2022-09-03T03:32:56;21.60;99.90
31131;DHT22;20292;50.944;4.034;2022-09-03T03:35:22;21.40;99.90
31131;DHT22;20292;50.944;4.034;2022-09-03T03:37:48;21.50;99.90
31131;DHT22;20292;50.944;4.034;2022-09-03T03:40:14;21.40;99.90
31131;DHT22;20292;50.944;4.034;2022-09-03T03:42:40;21.40;99.90
31131;DHT22;20292;50.944;4.034;2022-09-03T03:45:06;21.40;99.90
31131;DHT22;20292;50.944;4.034;2022-09-03T03:47:33;21.30;99.90
31131;DHT22;20292;50.944;4.034;2022-09-03T03:49:59;21.30;99.90
31131;DHT22;20292;50.944;4.034;2022-09-03T03:52:25;21.30;99.90
31131;DHT22;20292;50.944;4.034;2022-09-03T03:54:52;21.30;99.90
31131;DHT22;20292;50.944;4.034;2022-09-03T03:57:18;21.20;99.90
31131;DHT22;20292;50.944;4.034;2022-09-03T03:59:44;21.30;99.90
31131;DHT22;20292;50.944;4.034;2022-09-03T04:02:10;21.20;99.90
31131;DHT22;20292;50.944;4.034;2022-09-03T04:04:36;21.30;99.90
31131;DHT22;20292;50.944;4.034;2022-09-03T04:07:02;21.30;99.90
31131;DHT22;20292;50.944;4.034;2022-09-03T04:09:28;21.30;99.90
31131;DHT22;20292;50.944;4.034;2022-09-03T04:11:53;21.30;99.90
31131;DHT22;20292;50.944;4.034;2022-09-03T04:14:21;21.30;99.90
31131;DHT22;20292;50.944;4.034;2022-09-03T04:16:46;21.40;99.90
31131;DHT22;20292;50.944;4.034;2022-09-03T04:19:12;21.40;99.90
31131;DHT22;20292;50.944;4.034;2022-09-03T04:21:38;21.20;99.90
31131;DHT22;20292;50.944;4.034;2022-09-03T04:24:04;21.10;99.90
31131;DHT22;20292;50.944;4.034;2022-09-03T04:26:32;21.00;99.90
31131;DHT22;20292;50.944;4.034;2022-09-03T04:29:06;21.00;99.90
31131;DHT22;20292;50.944;4.034;2022-09-03T04:31:33;21.10;99.90
31131;DHT22;20292;50.944;4.034;2022-09-03T04:33:59;21.20;99.90
31131;DHT22;20292;50.944;4.034;2022-09-03T04:36:26;21.20;99.90
31131;DHT22;20292;50.944;4.034;2022-09-03T04:38:54;20.50;99.90
31131;DHT22;20292;50.944;4.034;2022-09-03T04:41:22;19.90;99.90
31131;DHT22;20292;50.944;4.034;2022-09-03T04:43:50;19.90;99.90
31131;DHT22;20292;50.944;4.034;2022-09-03T04:46:16;20.00;99.90
31131;DHT22;20292;50.944;4.034;2022-09-03T04:48:42;20.00;99.90
31131;DHT22;20292;50.944;4.034;2022-09-03T04:51:13;20.20;99.90
31131;DHT22;20292;50.944;4.034;2022-09-03T04:53:41;20.40;99.90
31131;DHT22;20292;50.944;4.034;2022-09-03T04:56:19;20.60;99.90
31131;DHT22;20292;50.944;4.034;2022-09-03T04:58:45;20.70;99.90
31131;DHT22;20292;50.944;4.034;2022-09-03T05:01:22;20.70;99.90
31131;DHT22;20292;50.944;4.034;2022-09-03T05:03:48;20.60;99.90
31131;DHT22;20292;50.944;4.034;2022-09-03T05:06:15;20.70;99.90
31131;DHT22;20292;50.944;4.034;2022-09-03T05:08:42;20.70;99.90
31131;DHT22;20292;50.944;4.034;2022-09-03T05:11:09;20.80;99.90
31131;DHT22;20292;50.944;4.034;2022-09-03T05:13:35;20.90;99.90
31131;DHT22;20292;50.944;4.034;2022-09-03T05:16:06;21.00;99.90
31131;DHT22;20292;50.944;4.034;2022-09-03T05:18:32;21.10;99.90
31131;DHT22;20292;50.944;4.034;2022-09-03T05:21:01;21.10;99.90
31131;DHT22;20292;50.944;4.034;2022-09-03T05:23:28;21.20;99.90
31131;DHT22;20292;50.944;4.034;2022-09-03T05:25:59;21.30;99.90
31131;DHT22;20292;50.944;4.034;2022-09-03T05:28:26;21.30;99.90
31131;DHT22;20292;50.944;4.034;2022-09-03T05:31:06;21.30;99.90
31131;DHT22;20292;50.944;4.034;2022-09-03T05:33:37;21.30;99.90
31131;DHT22;20292;50.944;4.034;2022-09-03T05:36:08;21.30;99.90
31131;DHT22;20292;50.944;4.034;2022-09-03T05:38:34;21.30;99.90
31131;DHT22;20292;50.944;4.034;2022-09-03T05:41:01;21.40;99.90
31131;DHT22;20292;50.944;4.034;2022-09-03T05:43:28;21.30;99.90
31131;DHT22;20292;50.944;4.034;2022-09-03T05:46:08;21.10;99.90
31131;DHT22;20292;50.944;4.034;2022-09-03T05:48:36;20.60;99.90
31131;DHT22;20292;50.944;4.034;2022-09-03T05:51:16;20.50;99.90
31131;DHT22;20292;50.944;4.034;2022-09-03T05:53:46;20.50;99.90
31131;DHT22;20292;50.944;4.034;2022-09-03T05:56:15;20.60;99.90
31131;DHT22;20292;50.944;4.034;2022-09-03T05:58:44;20.60;99.90
31131;DHT22;20292;50.944;4.034;2022-09-03T06:01:18;20.70;99.90
31131;DHT22;20292;50.944;4.034;2022-09-03T06:03:45;20.80;99.90
31131;DHT22;20292;50.944;4.034;2022-09-03T06:06:12;21.00;99.90
31131;DHT22;20292;50.944;4.034;2022-09-03T06:08:39;21.10;99.90
31131;DHT22;20292;50.944;4.034;2022-09-03T06:11:05;21.20;99.90
31131;DHT22;20292;50.944;4.034;2022-09-03T06:13:32;21.40;99.90
31131;DHT22;20292;50.944;4.034;2022-09-03T06:16:04;21.50;99.90
31131;DHT22;20292;50.944;4.034;2022-09-03T06:18:30;21.70;99.90
31131;DHT22;20292;50.944;4.034;2022-09-03T06:21:01;21.90;99.90
31131;DHT22;20292;50.944;4.034;2022-09-03T06:23:28;21.90;99.90
31131;DHT22;20292;50.944;4.034;2022-09-03T06:26:13;22.00;99.90
31131;DHT22;20292;50.944;4.034;2022-09-03T06:28:41;22.10;99.90
31131;DHT22;20292;50.944;4.034;2022-09-03T06:31:12;22.10;99.90
31131;DHT22;20292;50.944;4.034;2022-09-03T06:33:38;22.20;99.90
31131;DHT22;20292;50.944;4.034;2022-09-03T06:36:06;22.30;99.90
31131;DHT22;20292;50.944;4.034;2022-09-03T06:38:33;22.30;99.90
31131;DHT22;20292;50.944;4.034;2022-09-03T06:41:12;22.40;99.90
31131;DHT22;20292;50.944;4.034;2022-09-03T06:43:40;22.40;99.90
31131;DHT22;20292;50.944;4.034;2022-09-03T06:46:08;22.50;99.90
31131;DHT22;20292;50.944;4.034;2022-09-03T06:48:35;22.60;99.90
31131;DHT22;20292;50.944;4.034;2022-09-03T06:51:03;22.60;99.90
31131;DHT22;20292;50.944;4.034;2022-09-03T06:53:33;22.70;99.90
31131;DHT22;20292;50.944;4.034;2022-09-03T06:56:01;22.80;99.90
31131;DHT22;20292;50.944;4.034;2022-09-03T06:58:35;22.70;99.90
31131;DHT22;20292;50.944;4.034;2022-09-03T07:01:18;22.70;99.90
31131;DHT22;20292;50.944;4.034;2022-09-03T07:03:45;22.30;99.90
31131;DHT22;20292;50.944;4.034;2022-09-03T07:06:14;22.00;99.90
31131;DHT22;20292;50.944;4.034;2022-09-03T07:08:40;21.30;99.90
31131;DHT22;20292;50.944;4.034;2022-09-03T07:11:09;20.70;99.90
31131;DHT22;20292;50.944;4.034;2022-09-03T07:13:36;20.60;99.90
31131;DHT22;20292;50.944;4.034;2022-09-03T07:16:12;20.50;99.90
31131;DHT22;20292;50.944;4.034;2022-09-03T07:18:38;20.70;99.90
31131;DHT22;20292;50.944;4.034;2022-09-03T07:21:07;20.70;99.90
31131;DHT22;20292;50.944;4.034;2022-09-03T07:23:33;20.60;99.90
31131;DHT22;20292;50.944;4.034;2022-09-03T07:26:02;20.70;99.90
31131;DHT22;20292;50.944;4.034;2022-09-03T07:28:29;20.90;99.90
31131;DHT22;20292;50.944;4.034;2022-09-03T07:31:09;21.10;99.90
31131;DHT22;20292;50.944;4.034;2022-09-03T07:33:39;21.20;99.90
31131;DHT22;20292;50.944;4.034;2022-09-03T07:36:08;21.40;99.90
31131;DHT22;20292;50.944;4.034;2022-09-03T07:38:35;21.40;99.90
31131;DHT22;20292;50.944;4.034;2022-09-03T07:41:03;21.60;99.90
31131;DHT22;20292;50.944;4.034;2022-09-03T07:43:36;21.60;99.90
31131;DHT22;20292;50.944;4.034;2022-09-03T07:46:05;21.70;99.90
31131;DHT22;20292;50.944;4.034;2022-09-03T07:48:31;21.50;99.90
31131;DHT22;20292;50.944;4.034;2022-09-03T07:50:58;21.30;99.90
31131;DHT22;20292;50.944;4.034;2022-09-03T07:53:26;21.20;99.90
31131;DHT22;20292;50.944;4.034;2022-09-03T07:55:52;21.30;99.90
31131;DHT22;20292;50.944;4.034;2022-09-03T07:58:18;21.50;99.90
31131;DHT22;20292;50.944;4.034;2022-09-03T08:00:49;21.60;99.90
31131;DHT22;20292;50.944;4.034;2022-09-03T08:03:14;21.30;99.90
31131;DHT22;20292;50.944;4.034;2022-09-03T08:05:41;21.20;99.90
31131;DHT22;20292;50.944;4.034;2022-09-03T08:08:06;21.20;99.90
31131;DHT22;20292;50.944;4.034;2022-09-03T08:10:35;21.20;99.90
31131;DHT22;20292;50.944;4.034;2022-09-03T08:13:02;21.20;99.90
31131;DHT22;20292;50.944;4.034;2022-09-03T08:15:30;21.50;99.90
31131;DHT22;20292;50.944;4.034;2022-09-03T08:17:56;21.20;99.90
31131;DHT22;20292;50.944;4.034;2022-09-03T08:20:26;21.20;99.90
31131;DHT22;20292;50.944;4.034;2022-09-03T08:22:52;21.30;99.90
31131;DHT22;20292;50.944;4.034;2022-09-03T08:25:18;21.70;99.90
31131;DHT22;20292;50.944;4.034;2022-09-03T08:27:43;21.80;99.90
31131;DHT22;20292;50.944;4.034;2022-09-03T08:30:09;21.90;99.90
31131;DHT22;20292;50.944;4.034;2022-09-03T08:32:37;22.00;99.90
31131;DHT22;20292;50.944;4.034;2022-09-03T08:35:04;21.90;99.90
31131;DHT22;20292;50.944;4.034;2022-09-03T08:37:30;22.20;99.90
31131;DHT22;20292;50.944;4.034;2022-09-03T08:39:56;22.20;99.90
31131;DHT22;20292;50.944;4.034;2022-09-03T08:42:29;22.40;99.90
31131;DHT22;20292;50.944;4.034;2022-09-03T08:45:02;22.70;99.90
31131;DHT22;20292;50.944;4.034;2022-09-03T08:47:41;23.10;99.90
31131;DHT22;20292;50.944;4.034;2022-09-03T08:55:30;24.80;99.90
31131;DHT22;20292;50.944;4.034;2022-09-03T08:58:08;25.50;99.90
31131;DHT22;20292;50.944;4.034;2022-09-03T09:00:50;25.90;99.90
31131;DHT22;20292;50.944;4.034;2022-09-03T09:09:02;27.30;99.90
31131;DHT22;20292;50.944;4.034;2022-09-03T09:11:49;28.10;99.90
31131;DHT22;20292;50.944;4.034;2022-09-03T09:14:30;28.30;99.90
31131;DHT22;20292;50.944;4.034;2022-09-03T09:17:07;28.50;99.90
31131;DHT22;20292;50.944;4.034;2022-09-03T09:22:42;27.30;99.90
31131;DHT22;20292;50.944;4.034;2022-09-03T09:25:15;27.10;99.90
31131;DHT22;20292;50.944;4.034;2022-09-03T09:27:58;27.20;99.90
31131;DHT22;20292;50.944;4.034;2022-09-03T09:30:25;27.40;99.90
31131;DHT22;20292;50.944;4.034;2022-09-03T09:32:51;27.20;99.90
31131;DHT22;20292;50.944;4.034;2022-09-03T09:35:18;27.00;99.90
31131;DHT22;20292;50.944;4.034;2022-09-03T09:37:52;26.80;99.90
31131;DHT22;20292;50.944;4.034;2022-09-03T09:43:12;26.40;99.90
31131;DHT22;20292;50.944;4.034;2022-09-03T09:45:43;27.40;99.90
31131;DHT22;20292;50.944;4.034;2022-09-03T09:48:20;28.40;99.90
31131;DHT22;20292;50.944;4.034;2022-09-03T09:50:46;28.90;99.90
31131;DHT22;20292;50.944;4.034;2022-09-03T09:53:12;28.70;99.90
31131;DHT22;20292;50.944;4.034;2022-09-03T09:55:56;28.40;99.90
31131;DHT22;20292;50.944;4.034;2022-09-03T09:58:24;28.50;99.90
31131;DHT22;20292;50.944;4.034;2022-09-03T10:00:55;28.60;99.90
31131;DHT22;20292;50.944;4.034;2022-09-03T10:03:21;28.90;99.90
31131;DHT22;20292;50.944;4.034;2022-09-03T10:06:00;29.10;99.90
31131;DHT22;20292;50.944;4.034;2022-09-03T10:08:26;29.10;99.90
31131;DHT22;20292;50.944;4.034;2022-09-03T10:10:52;28.80;99.90
31131;DHT22;20292;50.944;4.034;2022-09-03T10:13:28;28.90;99.90
31131;DHT22;20292;50.944;4.034;2022-09-03T10:18:56;28.70;99.90
31131;DHT22;20292;50.944;4.034;2022-09-03T10:21:35;28.40;99.90
31131;DHT22;20292;50.944;4.034;2022-09-03T10:26:51;28.50;99.90
31131;DHT22;20292;50.944;4.034;2022-09-03T10:29:20;28.60;99.90
31131;DHT22;20292;50.944;4.034;2022-09-03T10:40:21;29.00;99.90
31131;DHT22;20292;50.944;4.034;2022-09-03T10:46:10;28.90;99.90
31131;DHT22;20292;50.944;4.034;2022-09-03T10:51:35;29.00;99.90
31131;DHT22;20292;50.944;4.034;2022-09-03T10:54:26;28.80;99.90
31131;DHT22;20292;50.944;4.034;2022-09-03T10:57:07;28.70;99.90
31131;DHT22;20292;50.944;4.034;2022-09-03T11:07:20;28.70;99.90
31131;DHT22;20292;50.944;4.034;2022-09-03T11:10:09;28.90;99.90
31131;DHT22;20292;50.944;4.034;2022-09-03T11:12:42;29.00;99.90
31131;DHT22;20292;50.944;4.034;2022-09-03T11:18:42;29.00;99.90
31131;DHT22;20292;50.944;4.034;2022-09-03T11:21:11;29.20;99.90
31131;DHT22;20292;50.944;4.034;2022-09-03T11:23:44;28.90;99.90
31131;DHT22;20292;50.944;4.034;2022-09-03T11:26:14;28.90;99.90
31131;DHT22;20292;50.944;4.034;2022-09-03T11:34:10;28.60;99.90
31131;DHT22;20292;50.944;4.034;2022-09-03T11:36:38;28.40;99.90
31131;DHT22;20292;50.944;4.034;2022-09-03T11:39:33;28.20;99.90
31131;DHT22;20292;50.944;4.034;2022-09-03T11:42:00;28.20;99.90
31131;DHT22;20292;50.944;4.034;2022-09-03T11:44:42;28.20;99.90
31131;DHT22;20292;50.944;4.034;2022-09-03T11:47:24;28.30;99.90
31131;DHT22;20292;50.944;4.034;2022-09-03T11:50:29;28.30;99.90
31131;DHT22;20292;50.944;4.034;2022-09-03T11:58:34;28.50;99.90
31131;DHT22;20292;50.944;4.034;2022-09-03T12:01:11;28.40;99.90
31131;DHT22;20292;50.944;4.034;2022-09-03T12:09:10;28.60;99.90
31131;DHT22;20292;50.944;4.034;2022-09-03T12:12:35;28.70;99.90
31131;DHT22;20292;50.944;4.034;2022-09-03T12:15:20;28.50;99.90
31131;DHT22;20292;50.944;4.034;2022-09-03T12:20:15;28.40;99.90
31131;DHT22;20292;50.944;4.034;2022-09-03T12:22:41;28.30;99.90
31131;DHT22;20292;50.944;4.034;2022-09-03T12:25:16;28.20;99.90
31131;DHT22;20292;50.944;4.034;2022-09-03T12:27:43;28.20;99.90
31131;DHT22;20292;50.944;4.034;2022-09-03T12:30:18;28.30;99.90
31131;DHT22;20292;50.944;4.034;2022-09-03T12:32:46;28.40;99.90
31131;DHT22;20292;50.944;4.034;2022-09-03T12:37:41;28.60;99.90
31131;DHT22;20292;50.944;4.034;2022-09-03T12:40:25;28.50;99.90
31131;DHT22;20292;50.944;4.034;2022-09-03T12:42:52;28.60;99.90
31131;DHT22;20292;50.944;4.034;2022-09-03T12:45:21;28.70;99.90
31131;DHT22;20292;50.944;4.034;2022-09-03T12:47:47;28.70;99.90
31131;DHT22;20292;50.944;4.034;2022-09-03T12:50:21;28.80;99.90
31131;DHT22;20292;50.944;4.034;2022-09-03T12:57:50;29.10;99.90
31131;DHT22;20292;50.944;4.034;2022-09-03T13:00:17;29.00;99.90
31131;DHT22;20292;50.944;4.034;2022-09-03T13:02:54;29.10;99.90
31131;DHT22;20292;50.944;4.034;2022-09-03T13:05:34;29.00;99.90
31131;DHT22;20292;50.944;4.034;2022-09-03T13:08:03;29.00;99.90
31131;DHT22;20292;50.944;4.034;2022-09-03T13:10:35;29.10;99.90
31131;DHT22;20292;50.944;4.034;2022-09-03T13:13:28;29.20;99.90
31131;DHT22;20292;50.944;4.034;2022-09-03T13:30:13;29.00;99.90
31131;DHT22;20292;50.944;4.034;2022-09-03T13:32:58;28.80;99.90
31131;DHT22;20292;50.944;4.034;2022-09-03T13:35:50;28.60;99.90
31131;DHT22;20292;50.944;4.034;2022-09-03T13:38:24;28.60;99.90
31131;DHT22;20292;50.944;4.034;2022-09-03T13:41:18;28.50;99.90
31131;DHT22;20292;50.944;4.034;2022-09-03T13:43:56;28.50;99.90
31131;DHT22;20292;50.944;4.034;2022-09-03T13:46:29;28.50;99.90
31131;DHT22;20292;50.944;4.034;2022-09-03T13:52:25;28.70;99.90
31131;DHT22;20292;50.944;4.034;2022-09-03T13:54:59;28.90;99.90
31131;DHT22;20292;50.944;4.034;2022-09-03T13:57:44;29.20;99.90
31131;DHT22;20292;50.944;4.034;2022-09-03T14:00:13;29.40;99.90
31131;DHT22;20292;50.944;4.034;2022-09-03T14:02:55;29.50;99.90
31131;DHT22;20292;50.944;4.034;2022-09-03T14:05:39;29.50;99.90
31131;DHT22;20292;50.944;4.034;2022-09-03T14:17:42;29.50;99.90
31131;DHT22;20292;50.944;4.034;2022-09-03T14:20:30;29.70;99.90
31131;DHT22;20292;50.944;4.034;2022-09-03T14:23:09;29.70;99.90
31131;DHT22;20292;50.944;4.034;2022-09-03T14:25:59;29.80;99.90
31131;DHT22;20292;50.944;4.034;2022-09-03T14:28:36;29.90;99.90
31131;DHT22;20292;50.944;4.034;2022-09-03T14:34:24;29.70;99.90
31131;DHT22;20292;50.944;4.034;2022-09-03T14:37:29;29.70;99.90
31131;DHT22;20292;50.944;4.034;2022-09-03T14:40:15;29.80;99.90
31131;DHT22;20292;50.944;4.034;2022-09-03T14:54:42;29.60;99.90
31131;DHT22;20292;50.944;4.034;2022-09-03T15:00:24;29.40;99.90
31131;DHT22;20292;50.944;4.034;2022-09-03T15:08:07;29.40;99.90
31131;DHT22;20292;50.944;4.034;2022-09-03T15:13:41;29.40;99.90
31131;DHT22;20292;50.944;4.034;2022-09-03T15:19:08;29.20;99.90
31131;DHT22;20292;50.944;4.034;2022-09-03T15:29:56;28.60;99.90
31131;DHT22;20292;50.944;4.034;2022-09-03T15:33:06;28.50;99.90
31131;DHT22;20292;50.944;4.034;2022-09-03T15:38:38;28.50;99.90
31131;DHT22;20292;50.944;4.034;2022-09-03T15:41:28;28.50;99.90
31131;DHT22;20292;50.944;4.034;2022-09-03T15:44:00;28.60;99.90
31131;DHT22;20292;50.944;4.034;2022-09-03T15:57:23;28.60;99.90
31131;DHT22;20292;50.944;4.034;2022-09-03T16:05:19;28.40;99.90
31131;DHT22;20292;50.944;4.034;2022-09-03T16:07:48;28.20;99.90
31131;DHT22;20292;50.944;4.034;2022-09-03T16:10:21;27.90;99.90
31131;DHT22;20292;50.944;4.034;2022-09-03T16:13:18;27.70;99.90
31131;DHT22;20292;50.944;4.034;2022-09-03T16:15:56;27.70;99.90
31131;DHT22;20292;50.944;4.034;2022-09-03T16:18:36;27.80;99.90
31131;DHT22;20292;50.944;4.034;2022-09-03T16:21:08;27.70;99.90
31131;DHT22;20292;50.944;4.034;2022-09-03T16:23:52;27.70;99.90
31131;DHT22;20292;50.944;4.034;2022-09-03T16:26:28;27.90;99.90
31131;DHT22;20292;50.944;4.034;2022-09-03T16:29:05;27.90;99.90
31131;DHT22;20292;50.944;4.034;2022-09-03T16:45:23;28.00;99.90
31131;DHT22;20292;50.944;4.034;2022-09-03T16:48:21;27.90;99.90
31131;DHT22;20292;50.944;4.034;2022-09-03T16:59:48;28.00;99.90
31131;DHT22;20292;50.944;4.034;2022-09-03T17:05:19;27.90;99.90
31131;DHT22;20292;50.944;4.034;2022-09-03T17:13:40;27.90;99.90
31131;DHT22;20292;50.944;4.034;2022-09-03T17:21:36;27.50;99.90
31131;DHT22;20292;50.944;4.034;2022-09-03T17:24:19;27.40;99.90
31131;DHT22;20292;50.944;4.034;2022-09-03T17:32:48;27.20;99.90
31131;DHT22;20292;50.944;4.034;2022-09-03T17:38:25;26.90;99.90
31131;DHT22;20292;50.944;4.034;2022-09-03T17:41:11;26.90;99.90
31131;DHT22;20292;50.944;4.034;2022-09-03T17:49:02;26.70;99.90
31131;DHT22;20292;50.944;4.034;2022-09-03T17:52:27;26.60;99.90
31131;DHT22;20292;50.944;4.034;2022-09-03T17:55:31;26.50;99.90
31131;DHT22;20292;50.944;4.034;2022-09-03T17:58:08;26.40;99.90
31131;DHT22;20292;50.944;4.034;2022-09-03T18:00:49;26.40;99.90
31131;DHT22;20292;50.944;4.034;2022-09-03T18:03:23;26.30;99.90
31131;DHT22;20292;50.944;4.034;2022-09-03T18:05:55;26.30;99.90
31131;DHT22;20292;50.944;4.034;2022-09-03T18:11:21;26.20;99.90
31131;DHT22;20292;50.944;4.034;2022-09-03T18:16:42;26.10;99.90
31131;DHT22;20292;50.944;4.034;2022-09-03T18:19:47;26.10;99.90
31131;DHT22;20292;50.944;4.034;2022-09-03T18:25:40;25.80;99.90
31131;DHT22;20292;50.944;4.034;2022-09-03T18:28:47;25.70;99.90
31131;DHT22;20292;50.944;4.034;2022-09-03T18:31:33;25.60;99.90
31131;DHT22;20292;50.944;4.034;2022-09-03T18:34:27;25.50;99.90
31131;DHT22;20292;50.944;4.034;2022-09-03T18:37:15;25.50;99.90
31131;DHT22;20292;50.944;4.034;2022-09-03T18:40:02;25.50;99.90
31131;DHT22;20292;50.944;4.034;2022-09-03T18:43:09;25.50;99.90
31131;DHT22;20292;50.944;4.034;2022-09-03T18:45:59;25.40;99.90
31131;DHT22;20292;50.944;4.034;2022-09-03T18:49:17;25.40;99.90
31131;DHT22;20292;50.944;4.034;2022-09-03T18:52:26;25.30;99.90
31131;DHT22;20292;50.944;4.034;2022-09-03T18:55:29;25.30;99.90
31131;DHT22;20292;50.944;4.034;2022-09-03T18:58:58;25.30;99.90
31131;DHT22;20292;50.944;4.034;2022-09-03T19:01:46;25.30;99.90
31131;DHT22;20292;50.944;4.034;2022-09-03T19:04:47;25.30;99.90
31131;DHT22;20292;50.944;4.034;2022-09-03T19:11:28;25.20;99.90
31131;DHT22;20292;50.944;4.034;2022-09-03T19:13:40;25.20;99.90
31131;DHT22;20292;50.944;4.034;2022-09-03T19:16:31;25.20;99.90
31131;DHT22;20292;50.944;4.034;2022-09-03T19:22:38;25.00;99.90
31131;DHT22;20292;50.944;4.034;2022-09-03T19:25:24;25.00;99.90
31131;DHT22;20292;50.944;4.034;2022-09-03T19:28:18;24.90;99.90
31131;DHT22;20292;50.944;4.034;2022-09-03T19:45:49;24.70;99.90
31131;DHT22;20292;50.944;4.034;2022-09-03T19:51:33;24.60;99.90
31131;DHT22;20292;50.944;4.034;2022-09-03T19:54:22;24.60;99.90
31131;DHT22;20292;50.944;4.034;2022-09-03T19:57:10;24.60;99.90
31131;DHT22;20292;50.944;4.034;2022-09-03T19:59:57;24.50;99.90
31131;DHT22;20292;50.944;4.034;2022-09-03T20:02:46;24.50;99.90
31131;DHT22;20292;50.944;4.034;2022-09-03T20:05:31;24.50;99.90
31131;DHT22;20292;50.944;4.034;2022-09-03T20:08:16;24.50;99.90
31131;DHT22;20292;50.944;4.034;2022-09-03T20:11:01;24.40;99.90
31131;DHT22;20292;50.944;4.034;2022-09-03T20:13:28;24.50;99.90
31131;DHT22;20292;50.944;4.034;2022-09-03T20:19:28;24.40;99.90
31131;DHT22;20292;50.944;4.034;2022-09-03T20:22:34;24.40;99.90
31131;DHT22;20292;50.944;4.034;2022-09-03T20:31:03;24.30;99.90
31131;DHT22;20292;50.944;4.034;2022-09-03T20:33:51;24.20;99.90
31131;DHT22;20292;50.944;4.034;2022-09-03T20:36:33;24.20;99.90
31131;DHT22;20292;50.944;4.034;2022-09-03T20:45:01;24.10;99.90
31131;DHT22;20292;50.944;4.034;2022-09-03T20:50:48;24.10;99.90
31131;DHT22;20292;50.944;4.034;2022-09-03T21:04:42;23.90;99.90
31131;DHT22;20292;50.944;4.034;2022-09-03T21:18:32;23.60;99.90
31131;DHT22;20292;50.944;4.034;2022-09-03T21:23:38;23.50;99.90
31131;DHT22;20292;50.944;4.034;2022-09-03T21:26:27;23.50;99.90
31131;DHT22;20292;50.944;4.034;2022-09-03T21:34:28;23.30;99.90
31131;DHT22;20292;50.944;4.034;2022-09-03T21:36:55;23.30;99.90
31131;DHT22;20292;50.944;4.034;2022-09-03T21:42:10;23.20;99.90
31131;DHT22;20292;50.944;4.034;2022-09-03T21:44:45;23.20;99.90
31131;DHT22;20292;50.944;4.034;2022-09-03T21:47:18;23.30;99.90
31131;DHT22;20292;50.944;4.034;2022-09-03T21:53:01;23.20;99.90
31131;DHT22;20292;50.944;4.034;2022-09-03T21:55:41;23.10;99.90
31131;DHT22;20292;50.944;4.034;2022-09-03T22:01:07;23.10;99.90
31131;DHT22;20292;50.944;4.034;2022-09-03T22:03:34;23.00;99.90
31131;DHT22;20292;50.944;4.034;2022-09-03T22:06:03;22.90;99.90
31131;DHT22;20292;50.944;4.034;2022-09-03T22:11:11;22.90;99.90
31131;DHT22;20292;50.944;4.034;2022-09-03T22:19:21;22.70;99.90
31131;DHT22;20292;50.944;4.034;2022-09-03T22:21:54;22.70;99.90